ADDS METAR Data INFO
IDs: Format: Raw Decoded Include TAF

Data at: 0459 UTC 16 Aug 2018

K2F5 160455Z AUTO 17010KT 10SM CLR 26/18 A3004 RMK AO2
K2F5 160435Z AUTO 17013KT 10SM CLR 27/18 A3004 RMK AO2
K2F5 160415Z AUTO 18014KT 10SM CLR 28/18 A3004 RMK AO2
K2F5 160355Z AUTO 18014KT 10SM CLR 28/18 A3003 RMK AO2
K2F5 160335Z AUTO 16015KT 10SM CLR 28/18 A3003 RMK AO2
K2F5 160315Z AUTO 17013KT 10SM CLR 28/18 A3003 RMK AO2
K2F5 160255Z AUTO 15011KT 10SM CLR 29/18 A3002 RMK AO2
K2F5 160235Z AUTO 15013KT 10SM CLR 29/17 A3001 RMK AO2
K2F5 160215Z AUTO 14011KT 10SM CLR 30/17 A3002 RMK AO2
K2F5 160155Z AUTO 15010KT 10SM CLR 30/17 A3002 RMK AO2
K2F5 160135Z AUTO 15011KT 10SM CLR 30/17 A3001 RMK AO2
K2F5 160115Z AUTO 15012G17KT 10SM CLR 31/17 A2999 RMK AO2
K2F5 160055Z AUTO 16015G19KT 10SM CLR 32/17 A2998 RMK AO2
K2F5 160035Z AUTO 16015KT 10SM CLR 32/16 A2997 RMK AO2
K2F5 160015Z AUTO 15012KT 10SM CLR 33/17 A2997 RMK AO2
K2F5 152355Z AUTO 15016G24KT 10SM CLR 33/16 A2996 RMK AO2
K2F5 152335Z AUTO 15014G23KT 10SM CLR 34/16 A2996 RMK AO2
K2F5 152315Z AUTO 17016G22KT 10SM CLR 34/16 A2996 RMK AO2
K2F5 152255Z AUTO 15012G20KT 10SM CLR 34/15 A2997 RMK AO2
K2F5 152235Z AUTO 15009G15KT 10SM CLR 34/15 A2997 RMK AO2
K2F5 152215Z AUTO 14008G16KT 10SM CLR 34/16 A2998 RMK AO2
K2F5 152155Z AUTO 14008G19KT 10SM CLR 34/16 A2998 RMK AO2
K2F5 152135Z AUTO 15008G15KT 10SM CLR 34/16 A2998 RMK AO2
K2F5 152115Z AUTO 13012G18KT 10SM CLR 34/17 A2999 RMK AO2
K2F5 152055Z AUTO 15012G16KT 10SM CLR 34/17 A3000 RMK AO2
K2F5 152035Z AUTO 12012G19KT 10SM CLR 34/17 A3001 RMK AO2
K2F5 152015Z AUTO 12012G20KT 10SM CLR 34/18 A3001 RMK AO2
K2F5 151955Z AUTO 17003G18KT 10SM CLR 33/18 A3002 RMK AO2
K2F5 151935Z AUTO 14010G17KT 10SM CLR 33/18 A3003 RMK AO2
K2F5 151915Z AUTO 14008G14KT 090V180 10SM CLR 32/19 A3004 RMK AO2
K2F5 151855Z AUTO 16008G15KT 110V190 10SM CLR 32/18 A3005 RMK AO2
K2F5 151835Z AUTO 10004KT 10SM CLR 31/19 A3005 RMK AO2
K2F5 151815Z AUTO 11010KT 10SM CLR 30/19 A3005 RMK AO2
K2F5 151755Z AUTO 15007KT 080V210 10SM CLR 29/19 A3006 RMK AO2
K2F5 151735Z AUTO 10008KT 10SM CLR 29/19 A3007 RMK AO2
K2F5 151715Z AUTO 00000KT 10SM CLR 29/19 A3007 RMK AO2
K2F5 151655Z AUTO 25003KT 10SM CLR 28/19 A3007 RMK AO2
K2F5 151635Z AUTO 00000KT 10SM CLR 28/19 A3007 RMK AO2
K2F5 151615Z AUTO 21007KT 10SM CLR 28/19 A3007 RMK AO2
K2F5 151555Z AUTO 19008KT 10SM CLR 27/19 A3006 RMK AO2
K2F5 151535Z AUTO 18011G19KT 10SM CLR 27/19 A3006 RMK AO2
K2F5 151515Z AUTO 18011G19KT 140V200 10SM CLR 26/19 A3006 RMK AO2
K2F5 151455Z AUTO 17010G21KT 140V200 10SM CLR 25/19 A3006 RMK AO2
K2F5 151435Z AUTO 17013G21KT 10SM CLR 25/19 A3006 RMK AO2
K2F5 151415Z AUTO 16013G19KT 130V200 10SM CLR 24/19 A3006 RMK AO2
K2F5 151355Z AUTO 14011KT 10SM CLR 23/18 A3005 RMK AO2
K2F5 151335Z AUTO 15009KT 10SM CLR 23/18 A3005 RMK AO2
K2F5 151315Z AUTO 15007KT 10SM CLR 22/18 A3005 RMK AO2
K2F5 151255Z AUTO 14011KT 10SM CLR 21/18 A3003 RMK AO2
K2F5 151235Z AUTO 15008KT 10SM CLR 21/18 A3003 RMK AO2
K2F5 151215Z AUTO 15005KT 10SM CLR 20/18 A3002 RMK AO2
K2F5 151155Z AUTO 15006KT 10SM CLR 20/18 A3002 RMK AO2
K2F5 151135Z AUTO 15006KT 10SM CLR 21/19 A3001 RMK AO2
K2F5 151115Z AUTO 16008KT 10SM CLR 20/19 A3001 RMK AO2
K2F5 151055Z AUTO 15003KT 10SM CLR 21/19 A3001 RMK AO2
K2F5 151035Z AUTO 14004KT 10SM CLR 21/19 A3001 RMK AO2
K2F5 151015Z AUTO 14005KT 10SM CLR 21/19 A3001 RMK AO2
K2F5 150955Z AUTO 15006KT 10SM CLR 21/19 A3000 RMK AO2 LTG DSNT NW
K2F5 150935Z AUTO 15006KT 10SM CLR 21/19 A3001 RMK AO2
K2F5 150915Z AUTO 17007KT 10SM CLR 21/19 A3002 RMK AO2
K2F5 150855Z AUTO 14007KT 10SM CLR 22/19 A3001 RMK AO2
K2F5 150835Z AUTO 13008KT 10SM CLR 22/19 A3001 RMK AO2
K2F5 150815Z AUTO 14007KT 10SM CLR 23/19 A3002 RMK AO2
K2F5 150755Z AUTO 13009KT 10SM CLR 23/19 A3001 RMK AO2
K2F5 150735Z AUTO 14007KT 10SM CLR 23/19 A3001 RMK AO2
K2F5 150715Z AUTO 15008KT 10SM CLR 24/19 A3001 RMK AO2
K2F5 150655Z AUTO 16008KT 10SM CLR 24/19 A3000 RMK AO2
K2F5 150635Z AUTO 18010KT 10SM CLR 24/19 A2999 RMK AO2
K2F5 150615Z AUTO 18011G16KT 10SM CLR 25/19 A2999 RMK AO2
K2F5 150555Z AUTO 18012KT 10SM CLR 25/19 A2999 RMK AO2
K2F5 150535Z AUTO 18013G18KT 10SM CLR 25/19 A2999 RMK AO2
K2F5 150515Z AUTO 18013KT 10SM CLR 25/19 A2998 RMK AO2
K2F5 150455Z AUTO 18013G19KT 10SM CLR 26/18 A2999 RMK AO2
K2F5 150435Z AUTO 18014KT 10SM CLR 26/18 A2999 RMK AO2
K2F5 150415Z AUTO 17017KT 10SM CLR 26/18 A2999 RMK AO2
K2F5 150355Z AUTO 17017G22KT 10SM CLR 27/18 A2998 RMK AO2
K2F5 150335Z AUTO 17016G22KT 10SM SCT120 27/18 A2998 RMK AO2
K2F5 150315Z AUTO 17017KT 10SM SCT120 27/18 A2997 RMK AO2
K2F5 150255Z AUTO 17017KT 10SM CLR 28/18 A2996 RMK AO2
K2F5 150235Z AUTO 17019KT 10SM CLR 28/18 A2996 RMK AO2
K2F5 150215Z AUTO 17019KT 10SM CLR 29/18 A2995 RMK AO2
K2F5 150155Z AUTO 17018G21KT 10SM CLR 29/17 A2994 RMK AO2
K2F5 150135Z AUTO 14015G21KT 10SM CLR 30/16 A2994 RMK AO2
K2F5 150115Z AUTO 14016G21KT 10SM CLR 30/17 A2993 RMK AO2
K2F5 150055Z AUTO 15015G20KT 10SM CLR 31/17 A2992 RMK AO2
K2F5 150035Z AUTO 14016KT 10SM CLR 31/17 A2992 RMK AO2
K2F5 150015Z AUTO 15014G21KT 10SM CLR 32/18 A2992 RMK AO2
K2F5 142355Z AUTO 15017G20KT 10SM CLR 32/18 A2992 RMK AO2
K2F5 142335Z AUTO 15012G16KT 10SM CLR 33/17 A2992 RMK AO2
K2F5 142315Z AUTO 17014G19KT 10SM CLR 33/16 A2992 RMK AO2
K2F5 142255Z AUTO 15007KT 10SM CLR 34/16 A2993 RMK AO2
K2F5 142235Z AUTO 15008KT 10SM CLR 33/15 A2993 RMK AO2
K2F5 142215Z AUTO 15008KT 10SM CLR 34/15 A2993 RMK AO2
K2F5 142155Z AUTO 16005G15KT 10SM CLR 34/16 A2993 RMK AO2
K2F5 142135Z AUTO 15008G14KT 10SM CLR 34/16 A2994 RMK AO2
K2F5 142115Z AUTO 17011G16KT 10SM CLR 33/16 A2995 RMK AO2
K2F5 142055Z AUTO 16008G17KT 10SM CLR 33/16 A2995 RMK AO2
K2F5 142035Z AUTO 19006G15KT 10SM SCT110 33/16 A2996 RMK AO2
K2F5 142015Z AUTO 16008G18KT 10SM SCT110 33/17 A2997 RMK AO2
K2F5 141955Z AUTO 19006KT 10SM CLR 32/17 A2997 RMK AO2
K2F5 141935Z AUTO 17011G17KT 120V190 10SM CLR 32/17 A2997 RMK AO2
K2F5 141915Z AUTO 18013G20KT 10SM CLR 31/18 A2998 RMK AO2
K2F5 141855Z AUTO 18012KT 10SM CLR 31/18 A2998 RMK AO2
K2F5 141835Z AUTO 19009KT 10SM CLR 31/19 A2998 RMK AO2
K2F5 141815Z AUTO 20008KT 10SM CLR 30/18 A2999 RMK AO2
K2F5 141755Z AUTO 19008G15KT 10SM CLR 29/19 A2999 RMK AO2
K2F5 141735Z AUTO 19008KT 10SM CLR 29/19 A3000 RMK AO2
K2F5 141715Z AUTO 16007KT 120V190 10SM CLR 28/19 A3001 RMK AO2